createdAt,value
2022-08-17T00:00:51.865Z,53.55
2022-08-17T00:06:13.666Z,52.83
2022-08-17T00:11:22.298Z,53.82
2022-08-17T00:16:50.415Z,52.92
2022-08-17T00:22:32.107Z,52.71
2022-08-17T00:27:18.678Z,53.30
2022-08-17T00:33:11.876Z,52.81
2022-08-17T00:37:42.136Z,52.83
2022-08-17T00:42:45.612Z,52.44
2022-08-17T00:47:47.657Z,52.85
2022-08-17T00:52:56.263Z,54.31
2022-08-17T00:58:01.598Z,53.05
2022-08-17T01:03:15.119Z,54.36
2022-08-17T01:08:19.649Z,54.29
2022-08-17T01:13:21.967Z,55.82
2022-08-17T01:18:24.153Z,55.01
2022-08-17T01:23:28.462Z,53.89
2022-08-17T01:28:52.799Z,53.59
2022-08-17T01:33:54.443Z,54.88
2022-08-17T01:38:56.139Z,54.89
2022-08-17T01:44:02.703Z,54.63
2022-08-17T01:49:09.913Z,56.02
2022-08-17T01:54:14.817Z,55.72
2022-08-17T01:59:19.797Z,56.14
2022-08-17T02:04:21.747Z,56.20
2022-08-17T02:09:29.505Z,55.61
2022-08-17T02:14:31.425Z,56.93
2022-08-17T02:19:32.979Z,56.07
2022-08-17T02:24:59.869Z,56.33
2022-08-17T02:29:58.312Z,56.93
2022-08-17T02:35:00.426Z,57.34
2022-08-17T02:40:02.717Z,56.46
2022-08-17T02:45:07.958Z,57.85
2022-08-17T02:50:12.130Z,55.98
2022-08-17T02:55:24.022Z,55.90
2022-08-17T03:00:29.948Z,56.26
2022-08-17T03:05:33.696Z,58.29
2022-08-17T03:10:35.168Z,59.73
2022-08-17T03:15:36.686Z,55.75
2022-08-17T03:20:42.292Z,55.95
2022-08-17T03:25:46.315Z,57.87
2022-08-17T03:30:47.789Z,55.94
2022-08-17T03:35:49.404Z,59.80
2022-08-17T03:40:56.488Z,55.82
2022-08-17T03:46:33.800Z,57.20
2022-08-17T03:51:55.618Z,57.45
2022-08-17T03:57:09.743Z,57.06
2022-08-17T04:02:18.773Z,56.57
2022-08-17T04:07:21.899Z,56.68
2022-08-17T04:12:24.325Z,58.07
2022-08-17T04:17:28.729Z,57.75
2022-08-17T04:22:34.238Z,57.04
2022-08-17T04:27:36.218Z,56.21
2022-08-17T04:33:06.143Z,57.21
2022-08-17T04:38:11.873Z,56.37
2022-08-17T04:43:16.483Z,56.68
2022-08-17T04:48:20.754Z,57.66
2022-08-17T04:53:22.203Z,57.28
2022-08-17T04:58:23.667Z,57.97
2022-08-17T05:03:25.093Z,57.07
2022-08-17T05:08:26.684Z,57.96
2022-08-17T05:13:32.234Z,57.66
2022-08-17T05:18:33.709Z,58.25
2022-08-17T05:23:43.013Z,58.81
2022-08-17T05:28:45.037Z,58.34
2022-08-17T05:33:47.557Z,58.71
2022-08-17T05:38:49.012Z,57.21
2022-08-17T05:43:54.377Z,57.22
2022-08-17T05:49:03.505Z,59.02
2022-08-17T05:54:56.744Z,57.21
2022-08-17T06:00:04.539Z,57.29
2022-08-17T06:05:17.273Z,59.49
2022-08-17T06:10:43.883Z,57.29
2022-08-17T06:15:59.483Z,57.17
2022-08-17T06:21:05.612Z,56.91
2022-08-17T06:26:17.459Z,57.49
2022-08-17T06:31:23.323Z,57.82
2022-08-17T06:36:33.927Z,59.06
2022-08-17T06:42:54.084Z,58.94
2022-08-17T06:47:59.498Z,56.38
2022-08-17T06:53:25.758Z,57.99
2022-08-17T06:58:31.817Z,58.49
2022-08-17T07:03:42.401Z,57.53
2022-08-17T07:09:01.047Z,57.19
2022-08-17T07:14:31.215Z,56.69
2022-08-17T07:19:35.046Z,55.67
2022-08-17T07:24:59.553Z,56.02
2022-08-17T07:30:16.075Z,55.40
2022-08-17T07:35:37.602Z,55.39
2022-08-17T07:40:57.993Z,55.26
2022-08-17T07:46:21.653Z,55.19
2022-08-17T07:51:27.703Z,55.07
2022-08-17T07:56:55.761Z,54.82
2022-08-17T08:02:06.655Z,55.08
2022-08-17T08:07:14.059Z,55.05
2022-08-17T08:12:27.174Z,55.47
2022-08-17T08:17:46.439Z,55.91
2022-08-17T08:23:15.473Z,55.69
2022-08-17T08:28:35.139Z,54.95
2022-08-17T08:33:49.195Z,55.80
2022-08-17T08:39:02.875Z,55.40
2022-08-17T08:44:16.217Z,55.76
2022-08-17T08:50:01.917Z,54.62
2022-08-17T08:55:12.319Z,55.56
2022-08-17T09:00:18.977Z,55.29
2022-08-17T09:05:23.074Z,55.11
2022-08-17T09:10:30.687Z,54.50
2022-08-17T09:15:42.565Z,55.06
2022-08-17T09:21:10.001Z,55.34
2022-08-17T09:26:22.800Z,54.58
2022-08-17T09:31:47.043Z,54.50
2022-08-17T09:37:20.520Z,54.10
2022-08-17T09:42:48.271Z,54.78
2022-08-17T09:48:27.498Z,53.91
2022-08-17T09:53:32.013Z,54.83
2022-08-17T09:58:50.367Z,54.89
2022-08-17T10:03:59.343Z,54.35
2022-08-17T10:09:09.668Z,53.98
2022-08-17T10:14:37.517Z,53.64
2022-08-17T10:19:58.636Z,54.19
2022-08-17T10:25:24.876Z,54.28
2022-08-17T10:30:35.584Z,54.40
2022-08-17T10:36:10.160Z,53.91
2022-08-17T10:41:19.641Z,54.13
2022-08-17T10:46:46.962Z,54.27
2022-08-17T10:51:55.066Z,55.42
2022-08-17T10:56:57.376Z,55.11
2022-08-17T11:02:12.281Z,56.61
2022-08-17T11:07:43.678Z,56.59
2022-08-17T11:13:11.458Z,56.96
2022-08-17T11:18:37.534Z,56.74
2022-08-17T11:23:50.819Z,57.26
2022-08-17T11:28:58.696Z,57.01
2022-08-17T11:34:07.657Z,57.68
2022-08-17T11:39:35.648Z,58.10
2022-08-17T11:44:53.520Z,59.53
2022-08-17T11:50:59.486Z,60.83
2022-08-17T11:56:05.225Z,59.73
2022-08-17T12:01:09.723Z,60.71
2022-08-17T12:06:31.176Z,59.58
2022-08-17T12:12:13.224Z,61.75
2022-08-17T12:17:40.794Z,60.92
2022-08-17T12:22:56.370Z,61.76
2022-08-17T12:28:06.753Z,61.94
2022-08-17T12:33:13.784Z,64.11
2022-08-17T12:38:33.037Z,62.65
2022-08-17T12:43:35.070Z,61.47
2022-08-17T12:48:37.052Z,63.43
2022-08-17T12:53:40.765Z,61.81
2022-08-17T12:58:54.057Z,60.10
2022-08-17T13:03:59.632Z,59.95
2022-08-17T13:09:18.411Z,61.44
2022-08-17T13:14:19.946Z,60.31
2022-08-17T13:19:40.139Z,61.51
2022-08-17T13:24:53.000Z,59.76
2022-08-17T13:29:59.527Z,61.37
2022-08-17T13:35:14.381Z,59.28
2022-08-17T13:40:19.094Z,59.16
2022-08-17T13:45:50.481Z,61.82
2022-08-17T13:50:55.420Z,60.19
2022-08-17T13:56:07.302Z,60.06
2022-08-17T14:01:54.346Z,61.80
2022-08-17T14:07:12.410Z,59.86
2022-08-17T14:12:18.161Z,61.94
2022-08-17T14:17:20.053Z,61.52
2022-08-17T14:22:28.850Z,62.61
2022-08-17T14:27:33.990Z,62.57
2022-08-17T14:32:45.192Z,61.98
2022-08-17T14:37:47.946Z,62.29
2022-08-17T14:42:49.786Z,63.11
2022-08-17T14:47:51.475Z,63.31
2022-08-17T14:52:55.104Z,63.65
2022-08-17T14:57:57.145Z,63.88
2022-08-17T15:03:00.267Z,63.40
2022-08-17T15:08:02.955Z,62.16
2022-08-17T15:13:10.312Z,63.22
2022-08-17T15:18:12.042Z,61.25
2022-08-17T15:23:15.696Z,61.99
2022-08-17T15:28:17.271Z,60.87
2022-08-17T15:33:22.007Z,61.19
2022-08-17T15:38:23.861Z,61.82
2022-08-17T15:43:28.428Z,61.18
2022-08-17T15:48:44.578Z,62.21
2022-08-17T15:53:49.343Z,60.84
2022-08-17T15:58:52.331Z,60.96
2022-08-17T16:04:05.229Z,60.13
2022-08-17T16:09:19.493Z,60.12
2022-08-17T16:14:20.942Z,60.92
2022-08-17T16:19:22.442Z,59.59
2022-08-17T16:24:23.880Z,59.33
2022-08-17T16:29:25.380Z,60.56
2022-08-17T16:34:26.815Z,61.61
2022-08-17T16:39:29.197Z,61.85
2022-08-17T16:44:32.098Z,61.64
2022-08-17T16:49:36.785Z,60.50
2022-08-17T16:54:44.200Z,61.33
2022-08-17T16:59:50.122Z,61.98
2022-08-17T17:04:59.985Z,61.75
2022-08-17T17:10:09.037Z,62.15
2022-08-17T17:15:10.835Z,62.82
2022-08-17T17:20:16.661Z,63.73
2022-08-17T17:26:02.967Z,62.76
2022-08-17T17:31:23.710Z,64.83
2022-08-17T17:36:50.102Z,63.43
2022-08-17T17:41:58.877Z,63.51
2022-08-17T17:47:02.595Z,62.97
2022-08-17T17:52:13.341Z,62.98
2022-08-17T17:57:29.510Z,64.29
2022-08-17T18:03:04.400Z,64.59
2022-08-17T18:08:34.766Z,64.02
2022-08-17T18:13:36.404Z,64.45
2022-08-17T18:18:40.044Z,63.74
2022-08-17T18:24:02.544Z,63.82
2022-08-17T18:29:30.098Z,63.09
2022-08-17T18:34:48.528Z,63.92
2022-08-17T18:39:50.425Z,63.19
2022-08-17T18:44:55.257Z,65.01
2022-08-17T18:50:16.845Z,64.63
2022-08-17T18:55:22.752Z,66.24
2022-08-17T19:00:30.150Z,63.90
2022-08-17T19:05:37.694Z,63.44
2022-08-17T19:10:47.044Z,64.33
2022-08-17T19:16:11.454Z,65.09
2022-08-17T19:21:23.052Z,65.38
2022-08-17T19:26:54.502Z,65.80
2022-08-17T19:31:58.380Z,65.13
2022-08-17T19:37:30.322Z,66.95
2022-08-17T19:42:49.767Z,65.42
2022-08-17T19:48:13.560Z,65.62
2022-08-17T19:53:19.513Z,66.41
2022-08-17T19:58:46.351Z,64.59
2022-08-17T20:04:07.570Z,67.85
2022-08-17T20:09:24.965Z,66.99
2022-08-17T20:14:55.408Z,66.95
2022-08-17T20:20:19.731Z,66.49
2022-08-17T20:25:30.080Z,73.35
2022-08-17T20:30:38.458Z,68.38
2022-08-17T20:35:59.656Z,68.77
2022-08-17T20:41:04.067Z,67.46
2022-08-17T20:46:36.146Z,68.76
2022-08-17T20:52:01.184Z,71.13
2022-08-17T20:57:09.276Z,69.29
2022-08-17T21:02:20.764Z,68.56
2022-08-17T21:07:24.482Z,71.36
2022-08-17T21:12:42.465Z,72.23
2022-08-17T21:17:53.931Z,71.99
2022-08-17T21:23:23.206Z,72.70
2022-08-17T21:29:00.431Z,70.51
2022-08-17T21:34:15.165Z,69.66
2022-08-17T21:39:23.329Z,72.93
2022-08-17T21:44:41.577Z,71.48
2022-08-17T21:49:43.501Z,74.71
2022-08-17T21:54:54.871Z,74.25
2022-08-17T21:59:58.576Z,75.19
2022-08-17T22:05:04.861Z,71.12
2022-08-17T22:10:27.034Z,73.01
2022-08-17T22:15:28.526Z,75.60
2022-08-17T22:20:30.003Z,77.92
2022-08-17T22:25:35.820Z,74.27
2022-08-17T22:31:01.504Z,78.82
2022-08-17T22:36:22.630Z,74.96
2022-08-17T22:42:06.266Z,74.81
2022-08-17T22:47:29.252Z,81.84
2022-08-17T22:52:56.651Z,82.83
2022-08-17T22:58:17.163Z,82.42
2022-08-17T23:03:22.161Z,82.39
2022-08-17T23:08:24.071Z,83.38
2022-08-17T23:13:26.446Z,79.49
2022-08-17T23:18:27.861Z,81.85
2022-08-17T23:23:29.334Z,77.35
2022-08-17T23:28:30.742Z,79.09
2022-08-17T23:33:38.508Z,83.14
2022-08-17T23:38:40.119Z,80.14
2022-08-17T23:43:45.088Z,79.97
2022-08-17T23:48:47.548Z,81.33
2022-08-17T23:53:55.153Z,83.94
2022-08-17T23:58:57.954Z,85.17
